createdAt,value
2023-02-25T00:00:23.632Z,3.24
2023-02-25T00:02:49.915Z,3.24
2023-02-25T00:05:16.581Z,3.21
2023-02-25T00:07:42.798Z,3.22
2023-02-25T00:10:09.447Z,3.24
2023-02-25T00:12:35.659Z,3.26
2023-02-25T00:15:01.865Z,3.23
2023-02-25T00:17:28.082Z,3.27
2023-02-25T00:19:54.276Z,3.30
2023-02-25T00:22:20.502Z,3.26
2023-02-25T00:24:46.703Z,3.27
2023-02-25T00:27:12.937Z,3.29
2023-02-25T00:29:39.150Z,3.33
2023-02-25T00:32:05.656Z,3.24
2023-02-25T00:34:31.968Z,3.22
2023-02-25T00:36:58.223Z,3.16
2023-02-25T00:39:24.511Z,3.16
2023-02-25T00:41:50.731Z,3.18
2023-02-25T00:44:16.931Z,3.16
2023-02-25T00:46:43.208Z,3.10
2023-02-25T00:49:09.472Z,3.07
2023-02-25T00:51:35.671Z,3.10
2023-02-25T00:54:01.878Z,3.04
2023-02-25T00:56:28.076Z,3.03
2023-02-25T00:58:54.362Z,3.03
2023-02-25T01:01:31.375Z,2.97
2023-02-25T01:03:57.751Z,3.03
2023-02-25T01:06:24.718Z,3.03
2023-02-25T01:08:51.190Z,3.01
2023-02-25T01:11:18.396Z,2.99
2023-02-25T01:13:44.607Z,3.03
2023-02-25T01:16:11.842Z,3.04
2023-02-25T01:18:38.102Z,3.02
2023-02-25T01:21:04.334Z,3.04
2023-02-25T01:23:30.565Z,3.00
2023-02-25T01:25:56.777Z,2.97
2023-02-25T01:28:23.003Z,2.96
2023-02-25T01:30:49.298Z,2.95
2023-02-25T01:33:15.570Z,2.91
2023-02-25T01:35:41.791Z,2.89
2023-02-25T01:38:08.018Z,2.85
2023-02-25T01:40:34.210Z,2.84
2023-02-25T01:43:00.428Z,2.85
2023-02-25T01:45:29.984Z,2.81
2023-02-25T01:48:03.506Z,2.77
2023-02-25T01:50:32.780Z,2.78
2023-02-25T01:52:58.988Z,2.73
2023-02-25T01:55:25.208Z,2.68
2023-02-25T01:57:51.432Z,2.73
2023-02-25T02:00:17.746Z,2.64
2023-02-25T02:02:44.407Z,2.67
2023-02-25T02:05:10.728Z,2.61
2023-02-25T02:07:36.935Z,2.59
2023-02-25T02:10:03.177Z,2.57
2023-02-25T02:12:31.406Z,2.59
2023-02-25T02:14:57.692Z,2.59
2023-02-25T02:17:23.862Z,2.60
2023-02-25T02:20:16.419Z,2.60
2023-02-25T02:23:01.381Z,2.60
2023-02-25T02:25:33.178Z,2.58
2023-02-25T02:28:10.580Z,2.59
2023-02-25T02:30:38.721Z,2.62
2023-02-25T02:33:08.784Z,2.58
2023-02-25T02:35:38.047Z,2.62
2023-02-25T02:38:08.765Z,2.61
2023-02-25T02:40:43.157Z,2.62
2023-02-25T02:43:24.361Z,2.63
2023-02-25T02:45:56.792Z,2.65
2023-02-25T02:48:43.422Z,2.62
2023-02-25T02:51:12.083Z,2.57
2023-02-25T02:53:40.189Z,2.54
2023-02-25T02:56:07.171Z,2.53
2023-02-25T02:58:37.173Z,2.55
2023-02-25T03:01:07.658Z,2.48
2023-02-25T03:03:35.185Z,2.46
2023-02-25T03:06:01.915Z,2.43
2023-02-25T03:08:28.598Z,2.33
2023-02-25T03:10:54.804Z,2.31
2023-02-25T03:13:21.013Z,2.23
2023-02-25T03:15:47.227Z,2.22
2023-02-25T03:18:21.672Z,2.14
2023-02-25T03:20:48.544Z,2.15
2023-02-25T03:23:17.022Z,2.07
2023-02-25T03:25:44.628Z,2.10
2023-02-25T03:28:16.468Z,2.13
2023-02-25T03:30:51.374Z,2.18
2023-02-25T03:33:29.487Z,2.19
2023-02-25T03:35:55.905Z,2.15
2023-02-25T03:38:22.739Z,2.00
2023-02-25T03:40:48.983Z,1.96
2023-02-25T03:43:21.113Z,1.98
2023-02-25T03:45:47.355Z,1.99
2023-02-25T03:48:13.885Z,2.00
2023-02-25T03:50:40.882Z,1.91
2023-02-25T03:53:07.085Z,1.98
2023-02-25T03:55:33.294Z,2.00
2023-02-25T03:57:59.487Z,2.01
2023-02-25T04:00:27.350Z,1.97
2023-02-25T04:02:53.631Z,1.95
2023-02-25T04:05:20.078Z,1.92
2023-02-25T04:07:46.321Z,1.83
2023-02-25T04:10:13.020Z,1.83
2023-02-25T04:12:39.304Z,1.77
2023-02-25T04:15:05.738Z,1.68
2023-02-25T04:17:32.213Z,1.57
2023-02-25T04:19:58.428Z,1.54
2023-02-25T04:22:24.637Z,1.56
2023-02-25T04:24:50.834Z,1.58
2023-02-25T04:27:17.035Z,1.61
2023-02-25T04:29:43.325Z,1.65
2023-02-25T04:32:09.872Z,1.61
2023-02-25T04:34:36.119Z,1.55
2023-02-25T04:37:02.403Z,1.47
2023-02-25T04:39:28.598Z,1.53
2023-02-25T04:41:54.811Z,1.48
2023-02-25T04:44:21.002Z,1.45
2023-02-25T04:46:47.234Z,1.45
2023-02-25T04:49:13.469Z,1.43
2023-02-25T04:51:39.881Z,1.43
2023-02-25T04:54:06.204Z,1.35
2023-02-25T04:56:32.419Z,1.36
2023-02-25T04:58:58.616Z,1.36
2023-02-25T05:01:24.847Z,1.30
2023-02-25T05:03:51.489Z,1.30
2023-02-25T05:06:17.728Z,1.28
2023-02-25T05:08:43.927Z,1.25
2023-02-25T05:11:10.132Z,1.27
2023-02-25T05:13:36.335Z,1.28
2023-02-25T05:16:03.528Z,1.26
2023-02-25T05:18:29.759Z,1.25
2023-02-25T05:20:55.955Z,1.26
2023-02-25T05:23:22.171Z,1.26
2023-02-25T05:25:48.373Z,1.24
2023-02-25T05:28:14.587Z,1.25
2023-02-25T05:30:40.796Z,1.22
2023-02-25T05:33:07.091Z,1.25
2023-02-25T05:35:33.369Z,1.23
2023-02-25T05:37:59.605Z,1.20
2023-02-25T05:40:25.803Z,1.20
2023-02-25T05:42:52.013Z,1.19
2023-02-25T05:45:18.266Z,1.22
2023-02-25T05:47:44.679Z,1.23
2023-02-25T05:50:11.033Z,1.26
2023-02-25T05:52:37.258Z,1.25
2023-02-25T05:55:03.568Z,1.22
2023-02-25T05:57:29.802Z,1.19
2023-02-25T05:59:56.011Z,1.22
2023-02-25T06:02:22.273Z,1.18
2023-02-25T06:04:48.521Z,1.15
2023-02-25T06:07:14.772Z,1.15
2023-02-25T06:09:40.974Z,1.13
2023-02-25T06:12:07.238Z,1.06
2023-02-25T06:14:33.479Z,1.04
2023-02-25T06:16:59.680Z,0.97
2023-02-25T06:19:25.891Z,0.98
2023-02-25T06:21:55.241Z,0.96
2023-02-25T06:24:21.821Z,0.95
2023-02-25T06:26:48.111Z,0.92
2023-02-25T06:29:14.323Z,0.85
2023-02-25T06:31:40.620Z,0.89
2023-02-25T06:34:06.886Z,0.84
2023-02-25T06:36:33.228Z,0.82
2023-02-25T06:38:59.674Z,0.82
2023-02-25T06:41:25.883Z,0.87
2023-02-25T06:43:52.540Z,0.84
2023-02-25T06:46:20.010Z,0.79
2023-02-25T06:48:46.293Z,0.78
2023-02-25T06:51:12.503Z,0.79
2023-02-25T06:53:39.055Z,0.76
2023-02-25T06:56:05.631Z,0.78
2023-02-25T06:58:32.290Z,0.76
2023-02-25T07:00:58.526Z,0.75
2023-02-25T07:03:24.784Z,0.73
2023-02-25T07:05:50.986Z,0.69
2023-02-25T07:08:17.211Z,0.68
2023-02-25T07:10:43.445Z,0.69
2023-02-25T07:13:10.117Z,0.71
2023-02-25T07:15:36.338Z,0.71
2023-02-25T07:18:03.086Z,0.72
2023-02-25T07:20:29.402Z,0.69
2023-02-25T07:22:55.620Z,0.66
2023-02-25T07:25:21.889Z,0.63
2023-02-25T07:27:48.129Z,0.63
2023-02-25T07:30:14.383Z,0.62
2023-02-25T07:32:41.035Z,0.64
2023-02-25T07:35:07.697Z,0.63
2023-02-25T07:37:33.950Z,0.63
2023-02-25T07:40:00.201Z,0.63
2023-02-25T07:42:29.402Z,0.58
2023-02-25T07:44:55.612Z,0.64
2023-02-25T07:47:22.369Z,0.63
2023-02-25T07:49:48.579Z,0.53
2023-02-25T07:52:14.792Z,0.59
2023-02-25T07:54:40.991Z,0.56
2023-02-25T07:57:07.215Z,0.60
2023-02-25T07:59:33.548Z,0.66
2023-02-25T08:01:59.913Z,0.68
2023-02-25T08:04:26.259Z,0.66
2023-02-25T08:06:52.505Z,0.75
2023-02-25T08:09:18.715Z,0.80
2023-02-25T08:11:44.906Z,0.92
2023-02-25T08:14:11.226Z,1.11
2023-02-25T08:16:37.467Z,1.20
2023-02-25T08:19:04.143Z,1.27
2023-02-25T08:21:30.343Z,1.37
2023-02-25T08:23:56.553Z,1.37
2023-02-25T08:26:23.077Z,1.36
2023-02-25T08:28:49.470Z,1.38
2023-02-25T08:31:15.810Z,1.40
2023-02-25T08:33:42.923Z,1.44
2023-02-25T08:36:09.932Z,1.42
2023-02-25T08:38:36.767Z,1.42
2023-02-25T08:41:03.092Z,1.50
2023-02-25T08:43:29.302Z,1.52
2023-02-25T08:45:55.507Z,1.63
2023-02-25T08:48:21.779Z,1.55
2023-02-25T08:50:47.982Z,1.60
2023-02-25T08:53:14.179Z,1.60
2023-02-25T08:55:40.387Z,1.66
2023-02-25T08:58:06.822Z,1.62
2023-02-25T09:00:33.076Z,1.59
2023-02-25T09:02:59.310Z,1.60
2023-02-25T09:05:25.785Z,1.57
2023-02-25T09:07:51.990Z,1.62
2023-02-25T09:10:18.325Z,1.60
2023-02-25T09:12:44.673Z,1.56
2023-02-25T09:15:11.172Z,1.54
2023-02-25T09:17:38.044Z,1.54
2023-02-25T09:20:04.471Z,1.48
2023-02-25T09:22:30.665Z,1.50
2023-02-25T09:24:56.925Z,1.44
2023-02-25T09:27:23.137Z,1.48
2023-02-25T09:29:49.352Z,1.47
2023-02-25T09:32:19.487Z,1.41
2023-02-25T09:34:45.905Z,1.42
2023-02-25T09:37:12.120Z,1.46
2023-02-25T09:39:38.332Z,1.40
2023-02-25T09:42:08.524Z,1.47
2023-02-25T09:44:41.952Z,1.50
2023-02-25T09:47:27.950Z,1.40
2023-02-25T09:49:55.056Z,1.45
2023-02-25T09:52:22.548Z,1.46
2023-02-25T09:54:49.932Z,1.45
2023-02-25T09:57:16.989Z,1.39
2023-02-25T09:59:43.203Z,1.35
2023-02-25T10:02:27.241Z,1.40
2023-02-25T10:05:07.405Z,1.34
2023-02-25T10:07:39.979Z,1.30
2023-02-25T10:10:23.482Z,1.31
2023-02-25T10:12:57.179Z,1.27
2023-02-25T10:15:36.467Z,1.25
2023-02-25T10:18:14.069Z,1.26
2023-02-25T10:20:48.372Z,1.31
2023-02-25T10:23:17.908Z,1.31
2023-02-25T10:25:54.411Z,1.27
2023-02-25T10:28:20.609Z,1.32
2023-02-25T10:30:49.011Z,1.34
2023-02-25T10:33:16.176Z,1.30
2023-02-25T10:35:42.646Z,1.35
2023-02-25T10:38:11.889Z,1.38
2023-02-25T10:40:38.282Z,1.36
2023-02-25T10:43:10.104Z,1.42
2023-02-25T10:45:36.313Z,1.47
2023-02-25T10:48:21.656Z,1.44
2023-02-25T10:51:01.288Z,1.48
2023-02-25T10:53:27.525Z,1.44
2023-02-25T10:55:53.731Z,1.51
2023-02-25T10:58:35.106Z,1.50
2023-02-25T11:01:03.454Z,1.55
2023-02-25T11:03:30.161Z,1.56
2023-02-25T11:06:13.552Z,1.55
2023-02-25T11:08:39.743Z,1.56
2023-02-25T11:11:14.422Z,1.58
2023-02-25T11:13:40.726Z,1.58
2023-02-25T11:16:08.027Z,1.55
2023-02-25T11:18:34.324Z,1.57
2023-02-25T11:21:01.460Z,1.48
2023-02-25T11:23:30.140Z,1.55
2023-02-25T11:25:56.340Z,1.55
2023-02-25T11:28:25.899Z,1.50
2023-02-25T11:30:52.272Z,1.53
2023-02-25T11:33:21.297Z,1.51
2023-02-25T11:35:47.497Z,1.49
2023-02-25T11:38:24.254Z,1.49
2023-02-25T11:40:50.446Z,1.56
2023-02-25T11:43:20.893Z,1.65
2023-02-25T11:45:53.316Z,1.76
2023-02-25T11:48:29.515Z,1.89
2023-02-25T11:50:55.656Z,1.99
2023-02-25T11:53:30.450Z,1.84
2023-02-25T11:56:09.151Z,2.02
2023-02-25T11:58:48.546Z,2.37
2023-02-25T12:01:20.743Z,2.25
2023-02-25T12:03:57.378Z,2.02
2023-02-25T12:06:30.493Z,1.94
2023-02-25T12:08:56.659Z,1.89
2023-02-25T12:11:41.789Z,1.78
2023-02-25T12:14:18.061Z,1.78
2023-02-25T12:17:05.380Z,1.86
2023-02-25T12:19:35.590Z,1.92
2023-02-25T12:22:01.745Z,1.77
2023-02-25T12:24:30.701Z,1.78
2023-02-25T12:27:17.160Z,1.79
2023-02-25T12:29:46.098Z,1.85
2023-02-25T12:32:18.344Z,1.84
2023-02-25T12:34:55.934Z,1.81
2023-02-25T12:37:43.257Z,1.83
2023-02-25T12:40:22.684Z,1.93
2023-02-25T12:43:00.958Z,1.78
2023-02-25T12:45:33.413Z,1.86
2023-02-25T12:48:14.967Z,1.91
2023-02-25T12:50:53.341Z,1.85
2023-02-25T12:53:28.606Z,1.95
2023-02-25T12:56:00.585Z,1.99
2023-02-25T12:58:29.585Z,2.05
2023-02-25T13:01:14.441Z,1.97
2023-02-25T13:03:46.751Z,2.03
2023-02-25T13:06:18.582Z,1.89
2023-02-25T13:09:03.463Z,1.83
2023-02-25T13:12:10.948Z,1.91
2023-02-25T13:14:46.626Z,1.84
2023-02-25T13:17:12.787Z,1.91
2023-02-25T13:20:11.145Z,1.87
2023-02-25T13:22:55.869Z,1.88
2023-02-25T13:25:24.251Z,1.91
2023-02-25T13:28:09.345Z,1.93
2023-02-25T13:30:38.064Z,2.16
2023-02-25T13:33:23.113Z,2.18
2023-02-25T13:35:52.046Z,2.26
2023-02-25T13:38:22.671Z,2.20
2023-02-25T13:41:06.611Z,2.20
2023-02-25T13:43:49.530Z,2.20
2023-02-25T13:46:28.048Z,2.07
2023-02-25T13:48:55.541Z,1.92
2023-02-25T13:51:21.879Z,1.84
2023-02-25T13:53:52.755Z,1.82
2023-02-25T13:56:37.871Z,1.80
2023-02-25T13:59:04.037Z,1.81
2023-02-25T14:01:30.257Z,1.84
2023-02-25T14:03:59.458Z,2.05
2023-02-25T14:06:29.157Z,2.21
2023-02-25T14:09:03.453Z,2.12
2023-02-25T14:11:32.641Z,1.93
2023-02-25T14:14:08.873Z,1.96
2023-02-25T14:16:43.490Z,1.90
2023-02-25T14:19:09.652Z,1.72
2023-02-25T14:21:41.957Z,1.84
2023-02-25T14:24:14.081Z,1.87
2023-02-25T14:26:42.999Z,1.79
2023-02-25T14:29:18.563Z,1.73
2023-02-25T14:31:49.627Z,1.65
2023-02-25T14:34:15.871Z,1.69
2023-02-25T14:37:00.620Z,1.64
2023-02-25T14:39:32.030Z,1.65
2023-02-25T14:42:11.688Z,1.81
2023-02-25T14:44:56.707Z,1.68
2023-02-25T14:47:26.129Z,1.63
2023-02-25T14:49:52.283Z,1.64
2023-02-25T14:52:18.441Z,1.55
2023-02-25T14:55:07.659Z,1.50
2023-02-25T14:57:52.423Z,1.48
2023-02-25T15:00:30.609Z,1.49
2023-02-25T15:03:15.343Z,1.49
2023-02-25T15:05:44.252Z,1.48
2023-02-25T15:08:13.205Z,1.47
2023-02-25T15:10:52.547Z,1.40
2023-02-25T15:13:21.779Z,1.27
2023-02-25T15:16:12.097Z,1.27
2023-02-25T15:18:38.281Z,1.24
2023-02-25T15:21:23.419Z,1.14
2023-02-25T15:23:50.139Z,1.05
2023-02-25T15:26:26.280Z,1.01
2023-02-25T15:28:53.117Z,1.00
2023-02-25T15:31:31.902Z,1.02
2023-02-25T15:34:16.965Z,1.00
2023-02-25T15:36:43.533Z,0.96
2023-02-25T15:39:09.734Z,0.95
2023-02-25T15:41:35.876Z,0.95
2023-02-25T15:44:08.028Z,0.95
2023-02-25T15:46:34.233Z,0.93
2023-02-25T15:49:17.509Z,0.93
2023-02-25T15:51:45.300Z,0.92
2023-02-25T15:54:31.795Z,0.97
2023-02-25T15:56:58.603Z,0.99
2023-02-25T15:59:43.708Z,0.97
2023-02-25T16:02:28.052Z,0.95
2023-02-25T16:04:57.116Z,1.01
2023-02-25T16:07:24.144Z,1.02
2023-02-25T16:10:00.715Z,0.99
2023-02-25T16:12:27.017Z,1.00
2023-02-25T16:14:53.241Z,1.00
2023-02-25T16:17:27.842Z,1.00
2023-02-25T16:19:56.094Z,1.03
2023-02-25T16:22:23.267Z,1.00
2023-02-25T16:24:50.305Z,1.00
2023-02-25T16:27:19.537Z,1.01
2023-02-25T16:29:55.488Z,1.07
2023-02-25T16:32:37.063Z,1.01
2023-02-25T16:35:14.118Z,0.99
2023-02-25T16:37:45.071Z,0.99
2023-02-25T16:40:19.601Z,0.98
2023-02-25T16:42:45.798Z,0.99
2023-02-25T16:45:14.726Z,0.92
2023-02-25T16:47:40.933Z,0.97
2023-02-25T16:50:13.716Z,1.03
2023-02-25T16:52:40.715Z,1.00
2023-02-25T16:55:07.302Z,1.00
2023-02-25T16:57:33.520Z,1.01
2023-02-25T17:00:13.307Z,1.07
2023-02-25T17:02:43.230Z,1.16
2023-02-25T17:05:10.439Z,1.27
2023-02-25T17:07:36.667Z,1.18
2023-02-25T17:10:03.539Z,1.27
2023-02-25T17:12:35.648Z,1.26
2023-02-25T17:15:02.484Z,1.21
2023-02-25T17:17:32.665Z,1.11
2023-02-25T17:19:58.874Z,1.20
2023-02-25T17:22:25.099Z,1.16
2023-02-25T17:24:51.505Z,1.18
2023-02-25T17:27:17.856Z,1.16
2023-02-25T17:29:44.055Z,1.17
2023-02-25T17:32:18.462Z,1.18
2023-02-25T17:34:44.697Z,1.18
2023-02-25T17:37:10.902Z,1.13
2023-02-25T17:39:37.117Z,1.14
2023-02-25T17:42:03.366Z,1.28
2023-02-25T17:44:38.664Z,1.30
2023-02-25T17:47:05.305Z,1.33
2023-02-25T17:49:32.193Z,1.34
2023-02-25T17:52:02.092Z,1.36
2023-02-25T17:54:28.828Z,1.38
2023-02-25T17:56:58.927Z,1.44
2023-02-25T17:59:28.150Z,1.41
2023-02-25T18:01:58.135Z,1.38
2023-02-25T18:04:25.468Z,1.40
2023-02-25T18:06:52.413Z,1.35
2023-02-25T18:09:26.539Z,1.43
2023-02-25T18:11:53.377Z,1.44
2023-02-25T18:14:24.446Z,1.40
2023-02-25T18:16:51.600Z,1.42
2023-02-25T18:19:23.148Z,1.41
2023-02-25T18:21:49.342Z,1.37
2023-02-25T18:24:22.707Z,1.37
2023-02-25T18:27:01.983Z,1.40
2023-02-25T18:29:28.198Z,1.13
2023-02-25T18:31:54.518Z,0.89
2023-02-25T18:34:20.811Z,0.77
2023-02-25T18:36:47.035Z,0.53
2023-02-25T18:39:13.255Z,0.48
2023-02-25T18:41:39.461Z,0.35
2023-02-25T18:44:14.539Z,0.27
2023-02-25T18:46:40.797Z,0.19
2023-02-25T18:49:07.058Z,0.17
2023-02-25T18:51:33.264Z,0.09
2023-02-25T18:53:59.474Z,0.06
2023-02-25T18:56:25.952Z,0.01
2023-02-25T18:58:52.369Z,0.01
2023-02-25T19:01:22.056Z,-0.04
2023-02-25T19:03:48.338Z,-0.01
2023-02-25T19:06:14.561Z,-0.08
2023-02-25T19:08:40.808Z,-0.11
2023-02-25T19:11:07.037Z,-0.10
2023-02-25T19:13:33.916Z,-0.18
2023-02-25T19:16:00.328Z,-0.20
2023-02-25T19:18:26.746Z,-0.23
2023-02-25T19:20:52.982Z,-0.15
2023-02-25T19:23:19.197Z,-0.21
2023-02-25T19:25:45.580Z,-0.18
2023-02-25T19:28:11.797Z,-0.20
2023-02-25T19:30:39.758Z,-0.21
2023-02-25T19:33:06.029Z,-0.19
2023-02-25T19:35:33.041Z,-0.21
2023-02-25T19:37:59.247Z,-0.23
2023-02-25T19:40:25.460Z,-0.25
2023-02-25T19:42:51.689Z,-0.30
2023-02-25T19:45:18.737Z,-0.31
2023-02-25T19:47:45.440Z,-0.33
2023-02-25T19:50:11.709Z,-0.27
2023-02-25T19:52:37.985Z,-0.28
2023-02-25T19:55:04.636Z,-0.35
2023-02-25T19:57:31.039Z,-0.43
2023-02-25T19:59:57.247Z,-0.46
2023-02-25T20:02:23.443Z,-0.49
2023-02-25T20:04:49.884Z,-0.47
2023-02-25T20:07:16.082Z,-0.40
2023-02-25T20:09:42.411Z,-0.36
2023-02-25T20:12:08.636Z,-0.30
2023-02-25T20:14:34.854Z,-0.28
2023-02-25T20:17:01.074Z,-0.28
2023-02-25T20:19:30.259Z,-0.32
2023-02-25T20:21:56.731Z,-0.33
2023-02-25T20:24:23.010Z,-0.28
2023-02-25T20:26:49.218Z,-0.26
2023-02-25T20:29:15.459Z,-0.27
2023-02-25T20:31:41.877Z,-0.25
2023-02-25T20:34:09.651Z,-0.23
2023-02-25T20:36:37.480Z,-0.20
2023-02-25T20:39:22.847Z,-0.16
2023-02-25T20:41:49.061Z,-0.17
2023-02-25T20:44:15.267Z,-0.11
2023-02-25T20:46:41.490Z,-0.09
2023-02-25T20:49:07.794Z,-0.08
2023-02-25T20:51:34.027Z,-0.04
2023-02-25T20:54:00.537Z,-0.01
2023-02-25T20:56:26.877Z,-0.01
2023-02-25T20:58:55.204Z,0.01
2023-02-25T21:01:21.686Z,0.03
2023-02-25T21:03:47.992Z,0.03
2023-02-25T21:06:14.427Z,0.06
2023-02-25T21:08:40.750Z,0.08
2023-02-25T21:11:10.073Z,0.13
2023-02-25T21:13:36.289Z,0.25
2023-02-25T21:16:03.072Z,0.34
2023-02-25T21:18:29.262Z,0.38
2023-02-25T21:21:01.924Z,0.33
2023-02-25T21:23:28.122Z,0.35
2023-02-25T21:25:54.521Z,0.34
2023-02-25T21:28:21.302Z,0.35
2023-02-25T21:30:47.866Z,0.26
2023-02-25T21:33:14.466Z,0.22
2023-02-25T21:35:42.672Z,0.30
2023-02-25T21:38:08.884Z,0.29
2023-02-25T21:40:35.096Z,0.38
2023-02-25T21:43:01.343Z,0.35
2023-02-25T21:45:27.605Z,0.29
2023-02-25T21:47:53.824Z,0.24
2023-02-25T21:50:20.037Z,0.33
2023-02-25T21:52:46.251Z,0.35
2023-02-25T21:55:12.484Z,0.38
2023-02-25T21:57:38.677Z,0.47
2023-02-25T22:00:05.139Z,0.45
2023-02-25T22:02:32.957Z,0.41
2023-02-25T22:04:59.350Z,0.44
2023-02-25T22:07:25.564Z,0.46
2023-02-25T22:09:51.770Z,0.43
2023-02-25T22:12:17.973Z,0.52
2023-02-25T22:14:44.162Z,0.48
2023-02-25T22:17:10.369Z,0.47
2023-02-25T22:19:36.573Z,0.41
2023-02-25T22:22:02.777Z,0.44
2023-02-25T22:24:28.994Z,0.36
2023-02-25T22:26:55.222Z,0.29
2023-02-25T22:29:21.430Z,0.12
2023-02-25T22:31:47.721Z,0.15
2023-02-25T22:34:13.974Z,0.17
2023-02-25T22:36:40.248Z,0.18
2023-02-25T22:39:06.711Z,0.13
2023-02-25T22:41:32.934Z,0.25
2023-02-25T22:43:59.129Z,0.30
2023-02-25T22:46:29.383Z,0.24
2023-02-25T22:48:55.768Z,0.26
2023-02-25T22:51:29.284Z,0.28
2023-02-25T22:53:55.574Z,0.22
2023-02-25T22:56:22.104Z,0.25
2023-02-25T22:58:48.413Z,0.18
2023-02-25T23:01:15.001Z,0.13
2023-02-25T23:03:41.194Z,0.22
2023-02-25T23:06:07.436Z,0.19
2023-02-25T23:08:33.842Z,0.29
2023-02-25T23:11:13.020Z,0.43
2023-02-25T23:13:39.292Z,0.37
2023-02-25T23:16:05.743Z,0.42
2023-02-25T23:18:31.962Z,0.45
2023-02-25T23:20:58.184Z,0.48
2023-02-25T23:23:24.378Z,0.56
2023-02-25T23:25:51.139Z,0.50
2023-02-25T23:28:17.416Z,0.52
2023-02-25T23:30:43.667Z,0.51
2023-02-25T23:33:12.230Z,0.55
2023-02-25T23:35:41.741Z,0.50
2023-02-25T23:38:07.959Z,0.54
2023-02-25T23:40:34.219Z,0.48
2023-02-25T23:43:00.438Z,0.53
2023-02-25T23:45:26.649Z,0.54
2023-02-25T23:47:52.864Z,0.56
2023-02-25T23:50:19.062Z,0.54
2023-02-25T23:52:45.433Z,0.56
2023-02-25T23:55:11.785Z,0.54
2023-02-25T23:57:38.155Z,0.55
